Main page
METAR-TAF:

METAR-TAF

Airports :

Kalaleh Airport

Kalaleh, Iran

latitude: 37-22-60N, longitude: 55-27-07E, elevation: 130 m

Current weather observation

The report was made 27 minutes ago, at 13:00 UTC
Wind 6 kt from the South
Temperature 33°C
Humidity 49%
Pressure 1005 hPa
Visibility 10 km or more
Scattered clouds at a height of 3000 ft
Broken clouds at a height of 9000 ft

METAR: OINE 221300Z 18006KT 9999 SCT030 BKN090 33/21 Q1005

Time: 17:57 (13:27 UTC)


TAF: missing

Weather observations and forecasts of more than 4000 airports (METAR and TAF reports).

The available stations are represented by yellow and red dots on the map.

Hover mouse over dot to see the name of the station.

Then click to see weather observations and forecasts.

To change the map : click on the green buttons with a black cross to zoom in, on the green button with a dash to zoom out, or on the green arrows for adjacent maps.


METAR-TAF: